Time;durP1;ratioP1;P1;durP2;ratioP2;P2;SDS_P1;SDS_P2;PMS_P1;PMS_P2;Temp;Humidity;BMP_temperature;BMP_pressure;BME280_temperature;BME280_humidity;BME280_pressure;Samples;Min_cycle;Max_cycle;Signal;HPM_P1;HPM_P2
2021/10/13 00:01:05;;;;;;;;;;;;;;;20.60;65.40;102503.00;7284462;19;154116;-57
2021/10/13 00:03:32;;;;;;;;;;;;;;;20.61;65.76;102499.09;7284379;19;152051;-58
2021/10/13 00:05:59;;;;;;;;;;;;;;;20.60;65.73;102494.59;7287274;19;152165;-58
2021/10/13 00:08:28;;;;;;;;;;;;;;;20.61;65.86;102496.28;7286242;19;153430;-57
2021/10/13 00:10:55;;;;;;;;;;;;;;;20.62;65.45;102495.19;7287155;19;151796;-57
2021/10/13 00:13:22;;;;;;;;;;;;;;;20.62;65.25;102492.38;7286970;19;153501;-57
2021/10/13 00:15:49;;;;;;;;;;;;;;;20.60;65.32;102491.78;7284349;19;153564;-57
2021/10/13 00:18:16;;;;;;;;;;;;;;;20.60;65.75;102494.59;7294822;19;152572;-57
2021/10/13 00:20:43;;;;;;;;;;;;;;;20.62;65.70;102488.72;7286507;19;153258;-58
2021/10/13 00:23:10;;;;;;;;;;;;;;;20.63;65.84;102494.03;7287168;19;151616;-56
2021/10/13 00:25:38;;;;;;;;;;;;;;;20.62;65.39;102492.38;7285163;19;153337;-58
2021/10/13 00:28:05;;;;;;;;;;;;;;;20.60;65.98;102488.13;7283685;19;153944;-57
2021/10/13 00:30:33;;;;;;;;;;;;;;;20.60;65.59;102503.00;7286635;19;151903;-57
2021/10/13 00:33:01;;;;;;;;;;;;;;;20.60;65.94;102496.53;7286491;19;153431;-56
2021/10/13 00:35:28;;;;;;;;;;;;;;;20.58;65.56;102495.97;7284935;19;153520;-57
2021/10/13 00:37:55;;;;;;;;;;;;;;;20.56;65.70;102498.22;7285271;19;151759;-56
2021/10/13 00:40:24;;;;;;;;;;;;;;;20.55;65.72;102496.50;7292785;19;153561;-57
2021/10/13 00:42:51;;;;;;;;;;;;;;;20.52;65.98;102509.13;7284693;19;151858;-56
2021/10/13 00:45:18;;;;;;;;;;;;;;;20.51;66.22;102506.59;7284374;19;154243;-57
2021/10/13 00:47:45;;;;;;;;;;;;;;;20.50;66.13;102502.09;7283308;19;153429;-57
2021/10/13 00:50:12;;;;;;;;;;;;;;;20.50;66.27;102510.50;7285344;19;151650;-57
2021/10/13 00:52:41;;;;;;;;;;;;;;;20.47;66.01;102509.09;7285231;19;152686;-57
2021/10/13 00:55:10;;;;;;;;;;;;;;;20.47;65.81;102506.28;7282717;19;153793;-57
2021/10/13 00:57:36;;;;;;;;;;;;;;;20.48;66.30;102504.34;7281875;19;151491;-57
2021/10/13 01:00:03;;;;;;;;;;;;;;;20.47;66.00;102506.28;7282740;19;153365;-57
2021/10/13 01:02:32;;;;;;;;;;;;;;;20.47;65.94;102502.63;7294442;19;153313;-57
2021/10/13 01:05:02;;;;;;;;;;;;;;;20.46;66.24;102510.22;7292588;19;152756;-57
2021/10/13 01:07:39;;;;;;;;;;;;;;;20.44;65.91;102506.84;7289781;19;152788;-56
2021/10/13 01:10:10;;;;;;;;;;;;;;;20.45;65.87;102516.09;7290878;19;151713;-57
2021/10/13 01:12:52;;;;;;;;;;;;;;;20.43;66.12;102507.97;7291307;19;152875;-57
2021/10/13 01:15:29;;;;;;;;;;;;;;;20.42;66.24;102514.69;7290182;19;153423;-57
2021/10/13 01:18:04;;;;;;;;;;;;;;;20.43;65.97;102513.56;7288776;19;152367;-57
2021/10/13 01:20:40;;;;;;;;;;;;;;;20.42;65.90;102507.09;7290045;19;152715;-57
2021/10/13 01:23:13;;;;;;;;;;;;;;;20.42;65.82;102512.72;7289788;19;153196;-57
2021/10/13 01:25:49;;;;;;;;;;;;;;;20.42;66.29;102511.88;7299464;19;151639;-57
2021/10/13 01:28:22;;;;;;;;;;;;;;;20.41;66.24;102508.22;7290036;19;153638;-57
2021/10/13 01:30:52;;;;;;;;;;;;;;;20.41;65.91;102504.56;7291050;19;151780;-57
2021/10/13 01:33:23;;;;;;;;;;;;;;;20.40;66.41;102506.50;7289666;19;153906;-57
2021/10/13 01:35:52;;;;;;;;;;;;;;;20.40;65.98;102511.28;7289323;19;153317;-58
2021/10/13 01:38:21;;;;;;;;;;;;;;;20.40;66.61;102512.13;7289391;19;151936;-57
2021/10/13 01:40:48;;;;;;;;;;;;;;;20.41;66.47;102515.78;7290991;19;153036;-58
2021/10/13 01:43:17;;;;;;;;;;;;;;;20.41;66.39;102515.78;7289516;19;153474;-58
2021/10/13 01:45:47;;;;;;;;;;;;;;;20.39;66.51;102509.63;7294439;19;152275;-58
2021/10/13 01:48:16;;;;;;;;;;;;;;;20.37;66.35;102509.88;7289062;19;154064;-57
2021/10/13 01:50:44;;;;;;;;;;;;;;;20.38;66.28;102510.72;7288627;19;151829;-58
2021/10/13 01:53:18;;;;;;;;;;;;;;;20.37;66.18;102509.03;7290149;19;152701;-57
2021/10/13 01:55:46;;;;;;;;;;;;;;;20.36;66.37;102502.56;7288751;19;154114;-56
2021/10/13 01:58:15;;;;;;;;;;;;;;;20.36;66.75;102513.78;7289684;19;152019;-56
2021/10/13 02:00:47;;;;;;;;;;;;;;;20.37;66.38;102511.81;7289620;19;154203;-57
2021/10/13 02:03:16;;;;;;;;;;;;;;;20.36;66.44;102510.97;7286612;19;153669;-58
2021/10/13 02:05:44;;;;;;;;;;;;;;;20.35;66.33;102517.69;7290698;19;151576;-57
2021/10/13 02:08:13;;;;;;;;;;;;;;;20.34;66.46;102520.81;7296687;19;153317;-57
2021/10/13 02:10:43;;;;;;;;;;;;;;;20.33;66.61;102519.09;7289781;19;152005;-57
2021/10/13 02:13:11;;;;;;;;;;;;;;;20.33;66.56;102516.28;7288232;19;153170;-59
2021/10/13 02:15:40;;;;;;;;;;;;;;;20.33;66.92;102517.16;7289497;19;153871;-57
2021/10/13 02:18:11;;;;;;;;;;;;;;;20.32;66.50;102520.22;7286757;19;151596;-58
2021/10/13 02:20:39;;;;;;;;;;;;;;;20.33;66.84;102524.72;7290268;19;153366;-57
2021/10/13 02:23:07;;;;;;;;;;;;;;;20.31;66.77;102524.13;7288033;19;154440;-57
2021/10/13 02:25:35;;;;;;;;;;;;;;;20.31;67.01;102518.50;7287849;19;151739;-57
2021/10/13 02:28:05;;;;;;;;;;;;;;;20.30;66.88;102519.66;7289384;19;152614;-58
2021/10/13 02:30:33;;;;;;;;;;;;;;;20.30;66.66;102519.66;7296317;19;154368;-57
2021/10/13 02:33:00;;;;;;;;;;;;;;;20.29;66.56;102523.53;7290000;19;152682;-56
2021/10/13 02:35:27;;;;;;;;;;;;;;;20.29;67.03;102520.72;7289282;19;153530;-57
2021/10/13 02:37:54;;;;;;;;;;;;;;;20.29;66.61;102529.16;7286499;19;151591;-57
2021/10/13 02:40:21;;;;;;;;;;;;;;;20.27;66.90;102526.59;7289845;19;153025;-57
2021/10/13 02:42:49;;;;;;;;;;;;;;;20.26;66.86;102522.09;7284823;19;154061;-58
2021/10/13 02:45:16;;;;;;;;;;;;;;;20.27;66.56;102525.75;7288911;19;151715;-57
2021/10/13 02:47:46;;;;;;;;;;;;;;;20.26;66.80;102524.91;7288962;19;153342;-58
2021/10/13 02:50:22;;;;;;;;;;;;;;;20.26;66.99;102532.50;7287957;19;153997;-58
2021/10/13 02:52:50;;;;;;;;;;;;;;;20.25;67.19;102536.41;7296345;19;151614;-58
2021/10/13 02:55:20;;;;;;;;;;;;;;;20.24;67.21;102529.94;7288323;19;153731;-57
2021/10/13 02:57:52;;;;;;;;;;;;;;;20.25;66.96;102530.78;7287176;19;151870;-58
2021/10/13 03:00:20;;;;;;;;;;;;;;;20.24;67.21;102524.34;7286451;19;153341;-57
2021/10/13 03:02:57;;;;;;;;;;;;;;;20.23;66.84;102533.88;7285066;19;154185;-57
2021/10/13 03:05:24;;;;;;;;;;;;;;;20.23;67.07;102531.06;7288999;19;152068;-56
2021/10/13 03:07:52;;;;;;;;;;;;;;;20.23;66.95;102535.81;7288100;19;153618;-57
2021/10/13 03:10:19;;;;;;;;;;;;;;;20.22;67.34;102534.97;7286987;19;153998;-57
2021/10/13 03:12:50;;;;;;;;;;;;;;;20.22;67.33;102534.13;7288876;19;151806;-56
2021/10/13 03:15:18;;;;;;;;;;;;;;;20.22;67.19;102531.31;7294608;19;151898;-55
2021/10/13 03:17:48;;;;;;;;;;;;;;;20.20;67.14;102531.59;7285970;19;151869;-58
2021/10/13 03:20:18;;;;;;;;;;;;;;;20.21;67.27;102529.66;7285511;19;153275;-57
2021/10/13 03:22:45;;;;;;;;;;;;;;;20.20;67.51;102530.75;7285158;19;154121;-57
2021/10/13 03:25:12;;;;;;;;;;;;;;;20.21;67.52;102530.50;7282633;19;152137;-58
2021/10/13 03:27:39;;;;;;;;;;;;;;;20.19;67.40;102529.06;7287234;19;153385;-57
2021/10/13 03:30:06;;;;;;;;;;;;;;;20.20;67.63;102530.75;7286165;19;154179;-57
2021/10/13 03:32:33;;;;;;;;;;;;;;;20.18;67.42;102525.41;7287583;19;151950;-57
2021/10/13 03:35:00;;;;;;;;;;;;;;;20.19;67.54;102531.84;7287247;19;153407;-58
2021/10/13 03:37:27;;;;;;;;;;;;;;;20.16;67.78;102529.59;7292071;19;151864;-57
2021/10/13 03:39:56;;;;;;;;;;;;;;;20.15;67.55;102530.69;7285055;19;153195;-58
2021/10/13 03:42:23;;;;;;;;;;;;;;;20.15;67.42;102525.94;7283988;19;153990;-57
2021/10/13 03:44:50;;;;;;;;;;;;;;;20.15;67.59;102528.75;7286953;19;151913;-57
2021/10/13 03:47:19;;;;;;;;;;;;;;;20.14;67.84;102524.25;7286933;19;152729;-57
2021/10/13 03:49:46;;;;;;;;;;;;;;;20.13;67.89;102519.72;7285210;19;154196;-56
2021/10/13 03:52:13;;;;;;;;;;;;;;;20.14;67.46;102521.44;7284226;19;151493;-57
2021/10/13 03:54:39;;;;;;;;;;;;;;;20.14;68.07;102514.97;7288009;19;152660;-57
2021/10/13 03:57:06;;;;;;;;;;;;;;;20.12;68.06;102511.59;7290367;19;153647;-57
2021/10/13 03:59:33;;;;;;;;;;;;;;;20.11;67.87;102527.59;7285582;19;153408;-56
2021/10/13 04:02:00;;;;;;;;;;;;;;;20.10;68.08;102525.88;7284839;19;153200;-57
2021/10/13 04:04:31;;;;;;;;;;;;;;;20.10;67.78;102514.66;7282535;19;151763;-57
2021/10/13 04:06:58;;;;;;;;;;;;;;;20.08;67.82;102513.25;7287586;19;153134;-57
2021/10/13 04:09:25;;;;;;;;;;;;;;;20.09;67.90;102515.78;7285467;19;153886;-58
2021/10/13 04:11:52;;;;;;;;;;;;;;;20.09;67.79;102518.59;7284499;19;152420;-56
2021/10/13 04:14:19;;;;;;;;;;;;;;;20.07;67.91;102518.03;7287295;19;151898;-57
2021/10/13 04:16:46;;;;;;;;;;;;;;;20.07;68.15;102519.97;7283610;19;153438;-58
2021/10/13 04:19:13;;;;;;;;;;;;;;;20.07;67.83;102526.44;7295210;19;151609;-57
2021/10/13 04:21:40;;;;;;;;;;;;;;;20.08;68.16;102527.28;7283902;19;153520;-57
2021/10/13 04:24:07;;;;;;;;;;;;;;;20.06;68.31;102529.50;7286138;19;151796;-56
2021/10/13 04:26:34;;;;;;;;;;;;;;;20.06;67.92;102532.31;7286642;19;153568;-57
2021/10/13 04:29:01;;;;;;;;;;;;;;;20.04;68.39;102531.72;7285380;19;154048;-58
2021/10/13 04:31:28;;;;;;;;;;;;;;;20.06;68.19;102535.13;7286762;19;151611;-58
2021/10/13 04:33:55;;;;;;;;;;;;;;;20.06;68.02;102530.34;7285740;19;153370;-61
2021/10/13 04:36:22;;;;;;;;;;;;;;;20.09;68.28;102531.75;7283384;19;154237;-57
2021/10/13 04:38:49;;;;;;;;;;;;;;;20.12;68.83;102536.84;7281186;19;151722;-56
2021/10/13 04:41:16;;;;;;;;;;;;;;;20.15;69.44;102528.75;7292713;19;153538;-57
2021/10/13 04:43:42;;;;;;;;;;;;;;;20.18;70.24;102524.53;7283718;19;151753;-57
2021/10/13 04:46:09;;;;;;;;;;;;;;;20.22;69.98;102534.13;7286770;19;153189;-57
2021/10/13 04:48:36;;;;;;;;;;;;;;;20.25;70.91;102522.38;7285400;19;153295;-57
2021/10/13 04:51:04;;;;;;;;;;;;;;;20.29;71.02;102524.38;7285217;19;151801;-57
2021/10/13 04:53:31;;;;;;;;;;;;;;;20.34;72.11;102516.03;7285730;19;153510;-58
2021/10/13 04:55:58;;;;;;;;;;;;;;;20.38;72.31;102508.75;7284650;19;154118;-58
2021/10/13 04:58:25;;;;;;;;;;;;;;;20.45;72.60;102516.94;7281529;19;151561;-57
2021/10/13 05:00:52;;;;;;;;;;;;;;;20.49;72.83;102514.47;7286074;19;152807;-57
2021/10/13 05:03:19;;;;;;;;;;;;;;;20.55;73.10;102513.34;7286462;19;152686;-57
2021/10/13 05:05:46;;;;;;;;;;;;;;;20.59;72.91;102518.16;7285061;19;153738;-57
2021/10/13 05:08:13;;;;;;;;;;;;;;;20.67;72.91;102517.66;7282204;19;154073;-58
2021/10/13 05:10:40;;;;;;;;;;;;;;;20.73;71.82;102516.56;7283309;19;152433;-57
2021/10/13 05:13:07;;;;;;;;;;;;;;;20.79;71.51;102521.09;7282809;19;154389;-57
2021/10/13 05:15:35;;;;;;;;;;;;;;;20.84;71.43;102523.94;7284326;19;153509;-57
2021/10/13 05:18:02;;;;;;;;;;;;;;;20.91;71.53;102522.84;7280595;19;151973;-58
2021/10/13 05:20:29;;;;;;;;;;;;;;;20.97;71.14;102519.81;7284086;19;153934;-57
2021/10/13 05:22:56;;;;;;;;;;;;;;;21.04;70.70;102525.16;7282695;19;152669;-58
2021/10/13 05:25:23;;;;;;;;;;;;;;;21.09;70.58;102523.22;7293900;19;152070;-58
2021/10/13 05:27:50;;;;;;;;;;;;;;;21.15;70.09;102521.31;7284898;19;152092;-58
2021/10/13 05:30:18;;;;;;;;;;;;;;;21.21;70.01;102517.41;7283618;19;152102;-57
2021/10/13 05:32:45;;;;;;;;;;;;;;;21.27;69.71;102521.91;7283797;19;152886;-57
2021/10/13 05:35:12;;;;;;;;;;;;;;;21.33;69.19;102518.03;7283117;19;154443;-58
2021/10/13 05:37:40;;;;;;;;;;;;;;;21.38;69.21;102517.19;7284634;19;151541;-57
2021/10/13 05:40:07;;;;;;;;;;;;;;;21.44;68.99;102519.72;7283283;19;151972;-58
2021/10/13 05:42:34;;;;;;;;;;;;;;;21.50;68.68;102523.41;7282337;19;154610;-58
2021/10/13 05:45:01;;;;;;;;;;;;;;;21.55;68.56;102529.91;7291908;19;151714;-57
2021/10/13 05:47:28;;;;;;;;;;;;;;;21.61;68.10;102528.81;7282991;19;153081;-57
2021/10/13 05:49:55;;;;;;;;;;;;;;;21.67;68.23;102538.06;7290354;19;152052;-57
2021/10/13 05:52:22;;;;;;;;;;;;;;;21.71;67.48;102537.25;7291917;19;152729;-56
2021/10/13 05:54:49;;;;;;;;;;;;;;;21.76;67.51;102533.59;7290479;19;152409;-57
2021/10/13 05:57:16;;;;;;;;;;;;;;;21.82;67.24;102548.53;7291133;19;151656;-56
2021/10/13 05:59:46;;;;;;;;;;;;;;;21.87;67.18;102545.72;7291006;19;152805;-57
2021/10/13 06:02:13;;;;;;;;;;;;;;;21.92;67.10;102555.03;7287199;19;156189;-57
2021/10/13 06:04:40;;;;;;;;;;;;;;;21.98;67.03;102553.09;7291403;19;152556;-57
2021/10/13 06:07:07;;;;;;;;;;;;;;;22.03;67.22;102555.94;7296108;19;152903;-56
2021/10/13 06:09:34;;;;;;;;;;;;;;;22.08;67.14;102561.53;7289308;19;151755;-57
2021/10/13 06:12:02;;;;;;;;;;;;;;;22.12;66.43;102555.06;7291256;19;152525;-57
2021/10/13 06:14:29;;;;;;;;;;;;;;;22.16;66.73;102561.00;7288377;19;153922;-57
2021/10/13 06:16:56;;;;;;;;;;;;;;;22.22;66.53;102559.00;7288036;19;153022;-56
2021/10/13 06:19:23;;;;;;;;;;;;;;;22.28;66.07;102563.53;7287348;19;152054;-58
2021/10/13 06:21:50;;;;;;;;;;;;;;;22.31;65.99;102562.97;7288346;19;156507;-58
2021/10/13 06:24:17;;;;;;;;;;;;;;;22.35;65.99;102569.75;7288851;19;151835;-58
2021/10/13 06:26:44;;;;;;;;;;;;;;;22.39;65.14;102559.59;7289377;19;152742;-58
2021/10/13 06:29:11;;;;;;;;;;;;;;;22.42;65.31;102565.50;7295698;19;153620;-57
2021/10/13 06:31:38;;;;;;;;;;;;;;;22.46;65.12;102562.97;7291068;19;152806;-57
2021/10/13 06:34:05;;;;;;;;;;;;;;;22.48;64.95;102569.19;7289674;19;153408;-58
2021/10/13 06:36:32;;;;;;;;;;;;;;;22.50;64.78;102570.56;7289102;19;151827;-56
2021/10/13 06:38:59;;;;;;;;;;;;;;;22.53;64.43;102563.56;7286986;19;153409;-57
2021/10/13 06:41:27;;;;;;;;;;;;;;;22.54;64.84;102568.03;7285978;19;153391;-57
2021/10/13 06:43:54;;;;;;;;;;;;;;;22.56;64.35;102569.47;7286802;19;151829;-58
2021/10/13 06:46:21;;;;;;;;;;;;;;;22.58;64.21;102572.81;7287148;19;151782;-56
2021/10/13 06:48:49;;;;;;;;;;;;;;;22.60;63.99;102569.72;7287952;19;153797;-58
2021/10/13 06:51:16;;;;;;;;;;;;;;;22.60;64.15;102573.38;7296581;19;151470;-57
2021/10/13 06:53:46;;;;;;;;;;;;;;;22.60;63.85;102575.38;7287753;19;154129;-57
2021/10/13 06:56:14;;;;;;;;;;;;;;;22.62;63.90;102578.75;7288997;19;151965;-56
2021/10/13 06:58:41;;;;;;;;;;;;;;;22.62;63.85;102576.75;7285301;19;153540;-58
2021/10/13 07:01:11;;;;;;;;;;;;;;;22.62;64.17;102578.75;7287547;19;152769;-57
2021/10/13 07:03:38;;;;;;;;;;;;;;;22.63;63.80;102584.09;7288455;19;151744;-58
2021/10/13 07:06:05;;;;;;;;;;;;;;;22.62;63.90;102582.38;7287118;19;153563;-58
2021/10/13 07:08:32;;;;;;;;;;;;;;;22.63;63.49;102581.28;7285302;19;152810;-57
2021/10/13 07:10:59;;;;;;;;;;;;;;;22.62;63.70;102585.22;7287781;19;152369;-57
2021/10/13 07:13:26;;;;;;;;;;;;;;;22.62;63.89;102588.03;7295047;19;153088;-57
2021/10/13 07:15:53;;;;;;;;;;;;;;;22.63;63.62;102583.22;7286491;19;151983;-57
2021/10/13 07:18:20;;;;;;;;;;;;;;;22.62;63.68;102587.22;7286879;19;153163;-59
2021/10/13 07:20:47;;;;;;;;;;;;;;;22.62;63.82;102590.03;7286901;19;153939;-58
2021/10/13 07:23:14;;;;;;;;;;;;;;;22.60;63.54;102607.19;7287858;19;151970;-57
2021/10/13 07:25:41;;;;;;;;;;;;;;;22.60;63.73;102603.53;7286645;19;152815;-55
2021/10/13 07:28:10;;;;;;;;;;;;;;;22.60;64.09;102603.53;7286984;19;153417;-57
2021/10/13 07:30:37;;;;;;;;;;;;;;;22.59;63.94;102608.31;7286440;19;151937;-56
2021/10/13 07:33:06;;;;;;;;;;;;;;;22.58;63.95;102603.81;7287707;19;152808;-56
2021/10/13 07:35:35;;;;;;;;;;;;;;;22.58;63.70;102597.31;7291853;19;153670;-56
2021/10/13 07:38:02;;;;;;;;;;;;;;;22.59;63.88;102610.28;7287914;19;152868;-57
2021/10/13 07:40:32;;;;;;;;;;;;;;;22.56;63.83;102614.53;7284031;19;154410;-57
2021/10/13 07:42:59;;;;;;;;;;;;;;;22.56;64.23;102610.88;7286036;19;152655;-57
2021/10/13 07:45:26;;;;;;;;;;;;;;;22.56;63.74;102620.16;7287773;19;152683;-57
2021/10/13 07:47:53;;;;;;;;;;;;;;;22.54;63.58;102613.94;7286494;19;152078;-58
2021/10/13 07:50:20;;;;;;;;;;;;;;;22.53;64.05;102615.06;7286402;19;151825;-57
2021/10/13 07:52:49;;;;;;;;;;;;;;;22.52;63.60;102627.50;7287107;19;154086;-58
2021/10/13 07:55:16;;;;;;;;;;;;;;;22.50;63.91;102632.53;7294220;19;152050;-57
2021/10/13 07:57:43;;;;;;;;;;;;;;;22.49;64.36;102628.03;7288718;19;152601;-57
2021/10/13 08:00:10;;;;;;;;;;;;;;;22.44;61.98;102625.22;7285706;19;153584;-58
2021/10/13 08:02:42;;;;;;;;;;;;;;;22.07;52.94;102628.28;7285402;19;151837;-57
2021/10/13 08:05:16;;;;;;;;;;;;;;;21.92;51.00;102632.97;7286821;19;153482;-58
2021/10/13 08:07:44;;;;;;;;;;;;;;;21.82;49.51;102624.50;7285329;19;153131;-58
2021/10/13 08:10:13;;;;;;;;;;;;;;;21.63;48.72;102625.00;7284679;19;151915;-56
2021/10/13 08:12:41;;;;;;;;;;;;;;;21.49;48.60;102632.25;7283170;19;152841;-56
2021/10/13 08:15:09;;;;;;;;;;;;;;;21.44;48.33;102632.22;7285031;19;153945;-56
2021/10/13 08:17:37;;;;;;;;;;;;;;;21.27;48.42;102635.22;7293469;19;151987;-56
2021/10/13 08:20:15;;;;;;;;;;;;;;;21.11;47.90;102638.19;7280903;19;153479;-57
2021/10/13 08:22:53;;;;;;;;;;;;;;;21.08;50.35;102633.94;7284927;19;151792;-56
2021/10/13 08:25:22;;;;;;;;;;;;;;;21.17;51.94;102640.78;7285708;19;153381;-58
2021/10/13 08:27:49;;;;;;;;;;;;;;;21.21;53.86;102639.13;7285036;19;153424;-57
2021/10/13 08:30:16;;;;;;;;;;;;;;;21.26;54.46;102630.72;7286117;19;151935;-56
2021/10/13 08:32:45;;;;;;;;;;;;;;;21.29;54.25;102640.59;7284258;19;154051;-56
2021/10/13 08:35:16;;;;;;;;;;;;;;;21.32;54.58;102637.22;7284240;19;152370;-57
2021/10/13 08:37:49;;;;;;;;;;;;;;;21.35;55.04;102633.84;7285833;19;151943;-57
2021/10/13 08:40:17;;;;;;;;;;;;;;;21.41;55.33;102635.59;7287237;19;151902;-57
2021/10/13 08:42:48;;;;;;;;;;;;;;;21.45;55.22;102630.25;7285226;19;151983;-56
2021/10/13 08:45:15;;;;;;;;;;;;;;;21.48;55.82;102633.38;7285492;19;154309;-56
2021/10/13 08:47:42;;;;;;;;;;;;;;;21.53;56.37;102635.38;7282761;19;153151;-57
2021/10/13 08:50:09;;;;;;;;;;;;;;;21.56;56.19;102630.03;7282980;19;151691;-56
2021/10/13 08:52:37;;;;;;;;;;;;;;;21.61;56.38;102629.22;7274777;19;153639;-57
2021/10/13 08:55:12;;;;;;;;;;;;;;;21.66;56.72;102629.25;7277137;19;153258;-56
2021/10/13 08:58:08;;;;;;;;;;;;;;;21.70;56.59;102631.22;7282573;19;152237;-58
2021/10/13 09:01:24;;;;;;;;;;;;;;;21.76;56.38;102618.00;7279129;19;152340;-57
2021/10/13 09:04:07;;;;;;;;;;;;;;;21.79;56.32;102619.44;7288439;19;152499;-58
2021/10/13 09:10:34;;;;;;;;;;;;;;;21.84;56.64;102619.44;7283140;19;153271;-57
2021/10/13 09:13:03;;;;;;;;;;;;;;;21.87;56.10;102622.56;7281071;19;152291;-58
2021/10/13 09:15:31;;;;;;;;;;;;;;;21.89;56.47;102622.28;7283457;19;152137;-56
2021/10/13 09:18:00;;;;;;;;;;;;;;;21.92;56.34;102628.19;7282373;19;154110;-55
2021/10/13 09:20:38;;;;;;;;;;;;;;;21.93;55.92;102623.44;7280747;19;152080;-56
2021/10/13 09:23:19;;;;;;;;;;;;;;;21.94;56.35;102620.34;7284703;19;154201;-57
2021/10/13 09:26:06;;;;;;;;;;;;;;;21.96;55.77;102620.91;7288930;19;152804;-56
2021/10/13 09:28:39;;;;;;;;;;;;;;;21.97;55.62;102628.25;7297687;19;151463;-56
2021/10/13 09:31:15;;;;;;;;;;;;;;;21.99;56.00;102627.94;7289340;19;153964;-57
2021/10/13 09:33:54;;;;;;;;;;;;;;;21.99;55.78;102619.50;7289310;19;152426;-56
2021/10/13 09:36:31;;;;;;;;;;;;;;;22.02;55.65;102624.59;7288492;19;153093;-56
2021/10/13 09:39:24;;;;;;;;;;;;;;;22.01;55.86;102625.72;7287798;19;152770;-56
2021/10/13 09:42:05;;;;;;;;;;;;;;;22.02;56.07;102622.63;7288191;19;152116;-56
2021/10/13 09:44:43;;;;;;;;;;;;;;;22.05;55.65;102627.69;7288850;19;155095;-56
2021/10/13 09:47:11;;;;;;;;;;;;;;;22.06;55.92;102625.72;7287694;19;154479;-56
2021/10/13 09:49:43;;;;;;;;;;;;;;;22.07;56.02;102630.25;7286481;19;151853;-57
2021/10/13 09:52:13;;;;;;;;;;;;;;;22.06;55.44;102632.22;7292522;19;153308;-56
2021/10/13 09:54:41;;;;;;;;;;;;;;;22.06;55.88;102635.03;7283190;19;151987;-56
2021/10/13 09:57:16;;;;;;;;;;;;;;;22.06;55.50;102620.94;7287966;19;153415;-56
2021/10/13 10:00:03;;;;;;;;;;;;;;;22.06;55.85;102620.94;7286823;19;154431;-56
2021/10/13 10:02:50;;;;;;;;;;;;;;;22.08;55.87;102610.25;7287039;19;151691;-56
2021/10/13 10:05:38;;;;;;;;;;;;;;;22.08;55.31;102615.88;7285886;19;153363;-57
2021/10/13 10:08:10;;;;;;;;;;;;;;;22.07;55.26;102610.53;7286667;19;154015;-56
2021/10/13 10:10:57;;;;;;;;;;;;;;;22.07;55.11;102607.72;7288726;19;151918;-58
2021/10/13 10:13:35;;;;;;;;;;;;;;;22.07;55.48;102602.09;7293807;19;154523;-56
2021/10/13 10:16:02;;;;;;;;;;;;;;;22.09;55.78;102597.00;7287494;19;151733;-59
2021/10/13 10:18:33;;;;;;;;;;;;;;;22.09;57.06;102589.41;7287697;19;152323;-58
2021/10/13 10:21:17;;;;;;;;;;;;;;;22.10;57.05;102584.63;7283888;19;153886;-57
2021/10/13 10:23:56;;;;;;;;;;;;;;;22.10;56.53;102591.13;7289143;19;152430;-57
2021/10/13 10:26:26;;;;;;;;;;;;;;;22.09;56.42;102591.38;7286662;19;153376;-58
2021/10/13 10:28:55;;;;;;;;;;;;;;;22.08;56.36;102586.88;7287821;19;153079;-56
2021/10/13 10:31:28;;;;;;;;;;;;;;;22.09;56.67;102580.13;7282738;19;151811;-58
2021/10/13 10:34:05;;;;;;;;;;;;;;;22.07;56.31;102580.44;7288282;19;153439;-56
2021/10/13 10:36:44;;;;;;;;;;;;;;;22.06;56.14;102590.00;7294933;19;152596;-57
2021/10/13 10:39:13;;;;;;;;;;;;;;;22.06;56.11;102578.72;7288308;19;155080;-57
2021/10/13 10:41:42;;;;;;;;;;;;;;;22.05;56.16;102587.44;7285784;19;154150;-58
2021/10/13 10:44:29;;;;;;;;;;;;;;;22.04;55.81;102588.56;7288711;19;151770;-58
2021/10/13 10:47:03;;;;;;;;;;;;;;;22.03;56.12;102590.53;7287807;19;153565;-58
2021/10/13 10:49:47;;;;;;;;;;;;;;;22.01;55.90;102592.78;7285781;19;152822;-58
2021/10/13 10:52:20;;;;;;;;;;;;;;;22.02;55.89;102599.28;7287842;19;151993;-58
2021/10/13 10:54:51;;;;;;;;;;;;;;;21.97;55.58;102593.63;7283803;19;152644;-59
2021/10/13 10:57:33;;;;;;;;;;;;;;;21.98;55.98;102601.81;7286151;19;154303;-56
2021/10/13 11:00:03;;;;;;;;;;;;;;;21.97;55.80;102602.06;7294313;19;151508;-57
2021/10/13 11:02:31;;;;;;;;;;;;;;;21.96;56.17;102592.78;7285547;19;153476;-57
2021/10/13 11:05:06;;;;;;;;;;;;;;;21.96;55.93;102600.38;7288013;19;152069;-58
2021/10/13 11:07:34;;;;;;;;;;;;;;;21.95;56.36;102599.53;7287803;19;152728;-57
2021/10/13 11:10:02;;;;;;;;;;;;;;;21.94;55.83;102592.19;7285947;19;152227;-58
2021/10/13 11:12:45;;;;;;;;;;;;;;;21.93;56.11;102584.06;7285300;19;151721;-57
2021/10/13 11:15:18;;;;;;;;;;;;;;;21.94;55.91;102588.56;7287889;19;153822;-57
2021/10/13 11:17:49;;;;;;;;;;;;;;;21.92;55.83;102582.31;7285936;19;153367;-55
2021/10/13 11:20:18;;;;;;;;;;;;;;;21.93;56.28;102586.88;7285686;19;152439;-56
2021/10/13 11:22:55;;;;;;;;;;;;;;;21.93;56.31;102581.25;7292694;19;152855;-56
2021/10/13 11:25:23;;;;;;;;;;;;;;;21.93;56.25;102579.28;7287618;19;151966;-57
2021/10/13 11:28:00;;;;;;;;;;;;;;;21.92;56.27;102579.50;7287005;19;153620;-57
2021/10/13 11:30:29;;;;;;;;;;;;;;;21.87;56.56;102571.03;7285810;19;153131;-56
2021/10/13 11:32:57;;;;;;;;;;;;;;;21.85;56.78;102574.13;7287788;19;152012;-55
2021/10/13 11:35:24;;;;;;;;;;;;;;;21.84;56.49;102572.47;7283955;19;152891;-56
2021/10/13 11:37:52;;;;;;;;;;;;;;;21.81;56.92;102564.56;7285300;19;153484;-56
2021/10/13 11:40:22;;;;;;;;;;;;;;;21.80;57.14;102565.72;7285323;19;151894;-57
2021/10/13 11:42:49;;;;;;;;;;;;;;;21.78;56.70;102572.72;7286321;19;152739;-57
2021/10/13 11:45:18;;;;;;;;;;;;;;;21.77;56.97;102568.22;7290153;19;153781;-57
2021/10/13 11:47:46;;;;;;;;;;;;;;;21.74;56.90;102564.00;7283825;19;153972;-55
2021/10/13 11:50:16;;;;;;;;;;;;;;;21.73;57.22;102574.41;7284250;19;154983;-56
2021/10/13 11:52:44;;;;;;;;;;;;;;;21.70;57.16;102563.72;7284310;19;151611;-56
2021/10/13 11:55:11;;;;;;;;;;;;;;;21.71;57.12;102571.00;7279407;19;152730;-57
2021/10/13 11:57:39;;;;;;;;;;;;;;;21.68;57.42;102567.91;7280446;19;155265;-57
2021/10/13 12:00:09;;;;;;;;;;;;;;;21.67;57.17;102564.25;7284042;19;152255;-56
2021/10/13 12:02:37;;;;;;;;;;;;;;;21.67;57.53;102564.25;7283259;19;151815;-57
2021/10/13 12:05:06;;;;;;;;;;;;;;;21.65;57.41;102562.84;7283599;19;152633;-58
2021/10/13 12:07:44;;;;;;;;;;;;;;;21.65;57.39;102558.06;7292002;19;151953;-57
2021/10/13 12:10:12;;;;;;;;;;;;;;;21.65;57.49;102560.03;7283004;19;154075;-56
2021/10/13 12:12:39;;;;;;;;;;;;;;;21.61;57.40;102568.19;7284318;19;151760;-57
2021/10/13 12:15:20;;;;;;;;;;;;;;;21.62;57.35;102557.78;7283778;19;153987;-56
2021/10/13 12:17:47;;;;;;;;;;;;;;;21.60;57.81;102552.41;7281908;19;153993;-56
2021/10/13 12:20:19;;;;;;;;;;;;;;;21.59;57.79;102559.16;7281702;19;151722;-57
2021/10/13 12:22:50;;;;;;;;;;;;;;;21.58;57.60;102551.84;7284428;19;153449;-56
2021/10/13 12:25:23;;;;;;;;;;;;;;;21.56;57.81;102556.91;7283771;19;153239;-57
2021/10/13 12:27:50;;;;;;;;;;;;;;;21.56;57.67;102550.44;7292125;19;151735;-57
2021/10/13 12:30:29;;;;;;;;;;;;;;;21.56;57.48;102551.28;7283267;19;153286;-56
2021/10/13 12:33:01;;;;;;;;;;;;;;;21.54;57.85;102542.25;7282606;19;152048;-55
2021/10/13 12:35:28;;;;;;;;;;;;;;;21.55;57.95;102543.13;7284313;19;153479;-55
2021/10/13 12:37:55;;;;;;;;;;;;;;;21.53;57.66;102549.00;7283136;19;153589;-57
2021/10/13 12:40:22;;;;;;;;;;;;;;;21.53;57.45;102551.00;7282248;19;153134;-56
2021/10/13 12:42:49;;;;;;;;;;;;;;;21.52;57.88;102555.78;7284598;19;152833;-56
2021/10/13 12:45:23;;;;;;;;;;;;;;;21.50;57.58;102551.53;7283139;19;154053;-57